Weather observations for the past three days for
Pratt Municipal
Imperial (Metric)
Date Time (cdt) Wind (mph) Vis. (mi.) Weather Sky Cond. Temperature (ºF) Relative Humidity Wind Chill (°F) Heat Index (°F) Pressure Precipitation (in)
Air Dwpt 6 hour altimeter (in) sea level (mb) 1 hr 3 hr 6 hr
Max. Min.
10 09:15 NE 12 10.00 Partly Cloudy SCT085 52.7 50.5 92% 30.19 0.0
10 08:55 NE 10 10.00 Thunderstorm in Vicinity BKN085 51.8 51.3 98% 30.19 0.0
10 08:35 NE 12 10.00 Light Rain OVC085 51.8 51.3 98% 30.18 0.0
10 08:15 NE 8 10.00 Thunderstorm Light Rain in Vicinity OVC085 52.2 51.8 99% 30.16 0.0
10 07:55 E 8 7.00 Light Rain OVC095 51.8 51.3 98% 30.13 0.0 0.04
10 07:35 E 9 10.00 Light Rain SCT080 OVC095 52 51.4 98% 30.12 0.0 0.01
10 07:15 NE 7 10.00 Light Rain BKN075 OVC095 52.5 50.5 93% 30.13 0.0
10 06:55 N 9 10.00 Light Rain OVC080 53.8 48 60.8 53.6 81% 30.14 0.0 0.02 0.02
10 06:35 N 9 10.00 Light Rain OVC080 53.8 48.2 82% 30.11 0.0 0.01
10 06:15 N 12 10.00 Light Rain BKN080 OVC090 55.9 46 70% 30.1 0.0
10 05:55 N 13 10.00 Overcast OVC090 57.2 44.8 63% 30.07 0.0
10 05:35 NE 10 10.00 Overcast OVC090 57.4 44.6 63% 30.05 0.0
10 05:15 NE 14 10.00 Thunderstorm BKN090 57.9 44.4 61% 30.05 0.0
10 04:55 N 13 G 18 10.00 Partly Cloudy SCT090 58.1 44.4 61% 30.05 0.0
10 04:35 N 17 G 26 10.00 Fair CLR 58.1 44.6 61% 30.04 0.0
10 04:15 N 15 G 22 10.00 Fair CLR 57.4 45.1 64% 30.03 0.0
10 03:55 N 12 10.00 Fair CLR 57.4 45.5 65% 30.03 0.0
10 03:35 N 15 10.00 Fair CLR 59 45.1 60% 30.02 0.0
10 03:15 NE 14 G 20 10.00 Partly Cloudy SCT110 59 45.3 61% 30.02 0.0
10 02:55 NE 14 10.00 Fair CLR 58.5 45.9 63% 30.02 0.0
10 02:35 N 14 G 17 10.00 Fair CLR 58.5 46.9 66% 30 0.0
10 02:15 N 12 10.00 Fair CLR 59.7 47.7 65% 29.99 0.0
10 01:55 NE 10 10.00 Fair CLR 60.6 48.2 64% 29.98 0.0
10 01:35 NE 10 10.00 Fair CLR 60.6 48.2 64% 29.98 0.0
10 01:15 NE 8 10.00 Partly Cloudy SCT110 60.1 48.7 66% 29.96 0.0
10 00:55 NE 7 10.00 Partly Cloudy SCT120 60.8 48.7 79.2 60.4 65% 29.97 0.0 0.01
10 00:35 NE 6 10.00 Partly Cloudy SCT120 60.8 49.1 66% 29.95 0.0
10 00:15 NE 6 10.00 Partly Cloudy SCT120 61.3 49.6 66% 29.95 0.0
09 23:55 NE 6 10.00 Partly Cloudy SCT120 61.2 50.5 68% 29.93 0.0
09 23:35 NE 7 10.00 Mostly Cloudy BKN120 62.6 50.5 65% 29.92 0.0
09 23:15 E 6 10.00 Partly Cloudy SCT110 63.1 50.2 63% 29.91 0.0
09 22:55 E 8 10.00 Partly Cloudy SCT120 64.6 49.3 58% 29.9 0.0
09 22:35 E 7 10.00 Mostly Cloudy BKN120 65.5 49.1 56% 29.9 0.0
09 22:15 E 3 10.00 Mostly Cloudy BKN120 65.5 49.5 56% 29.89 0.0
09 21:55 SE 8 10.00 Partly Cloudy SCT120 66.6 48.7 53% 29.87 0.0 0.01
09 21:35 SE 9 10.00 Partly Cloudy SCT120 67.5 48.2 50% 29.85 0.0
09 21:15 E 12 10.00 Thunderstorm in Vicinity SCT120 68 47.3 48% 29.83 0.0
09 20:55 E 9 10.00 Fair CLR 67.6 47.8 49% 29.82 0.0
09 20:35 E 13 10.00 Fair CLR 69.4 47.7 46% 29.82 0.0
09 20:15 E 9 10.00 Fair CLR 70.2 48.9 47% 29.81 0.0
09 19:55 SE 8 10.00 Partly Cloudy SCT120 71.2 48.6 45% 29.81 0.0 0.01
09 19:35 E 6 10.00 Mostly Cloudy SCT050 SCT070 BKN100 72 48 43% 29.79 0.0 0.01
09 19:15 NE 17 G 35 7.00 Rain SCT060 SCT080 OVC100 70.2 49.5 48% 29.82 0.0 0.01
09 18:55 NW 7 G 40 10.00 Thunderstorm Light Rain in Vicinity BKN100 OVC120 80.1 41.4 86.9 80.1 25% 79 29.79 0.0
09 18:35 SE 5 10.00 Mostly Cloudy BKN110 82.9 34.9 18% 80 29.75 0.0
09 18:15 SE 10 10.00 Partly Cloudy SCT110 84.2 32.7 16% 81 29.74 0.0
09 17:55 S 9 10.00 Fair CLR 85.6 32.4 15% 82 29.75 0.0
09 17:35 SE 9 10.00 Fair CLR 85.3 30.9 14% 82 29.75 0.0
09 17:15 S 8 G 17 10.00 Fair CLR 86 31.6 14% 83 29.76 0.0
09 16:55 SW 9 10.00 Fair CLR 86.4 34.2 15% 83 29.77 0.0
09 16:35 S 10 G 17 10.00 Fair CLR 86.2 32 14% 83 29.78 0.0
09 16:15 S 12 10.00 Fair CLR 86.5 33.6 15% 83 29.79 0.0
09 15:55 S 13 10.00 Fair CLR 85.3 34.5 16% 82 29.79 0.0
09 15:35 S 8 G 16 10.00 Fair CLR 86.2 33.1 15% 83 29.8 0.0
09 15:15 S 6 10.00 Fair CLR 85.3 36.9 18% 82 29.8 0.0
09 14:55 S 8 G 17 10.00 Fair CLR 84.4 36.1 18% 81 29.81 0.0
09 14:35 SW 12 10.00 Fair CLR 84.4 36.7 18% 81 29.82 0.0
09 14:15 S 10 10.00 Fair CLR 84 35.2 17% 81 29.82 0.0
09 13:55 S 10 10.00 Fair CLR 82.9 34.3 17% 80 29.83 0.0
09 13:35 SW 8 10.00 Fair CLR 83.5 34 17% 81 29.84 0.0
09 13:15 S 13 G 17 10.00 Fair CLR 83.1 34.7 18% 81 29.85 0.0
09 12:55 SW 8 10.00 Fair CLR 82.2 33.6 82.9 51.8 17% 80 29.86 0.0
09 12:35 S 7 10.00 Partly Cloudy SCT120 81.3 33.4 18% 79 29.87 0.0
09 12:15 SW 7 10.00 Partly Cloudy SCT120 80.6 38.1 22% 79 29.88 0.0
09 11:55 SW 12 10.00 Fair CLR 80.6 36.3 20% 79 29.88 0.0
09 11:35 SW 13 G 16 10.00 Fair CLR 80.2 36.3 21% 79 29.89 0.0
09 11:15 SW 9 10.00 Partly Cloudy SCT120 77.5 40.3 26% 78 29.9 0.0
09 10:55 SW 14 10.00 Partly Cloudy SCT120 74.7 41.2 30% 29.9 0.0
09 10:35 SW 12 10.00 Fair CLR 74.3 44.1 34% 29.89 0.0
09 10:15 SW 14 10.00 Fair CLR 73.9 44.2 35% 29.89 0.0
09 09:55 SW 16 10.00 Fair CLR 74.8 44.2 34% 29.89 0.0
09 09:35 SW 15 10.00 Fair CLR 73.2 44.2 36% 29.89 0.0
09 09:15 SW 16 10.00 Fair CLR 71.2 46.2 41% 29.89 0.0
09 08:55 SW 14 10.00 Fair CLR 68.4 46.6 46% 29.88 0.0
09 08:35 SW 10 10.00 Partly Cloudy SCT120 66 47.5 51% 29.88 0.0
09 08:15 SW 7 10.00 Partly Cloudy SCT120 62.8 48.6 60% 29.88 0.0
09 07:55 SW 5 10.00 Fair CLR 61.2 48.4 63% 29.88 0.0
09 07:35 SW 5 10.00 Fair CLR 56.8 46.9 70% 29.87 0.0
09 07:15 SW 6 10.00 Fair CLR 53.6 45.1 73% 29.87 0.0
09 06:55 SW 6 10.00 Fair CLR 51.4 43.5 53.8 48.2 74% 29.87 0.0
09 06:35 SW 7 10.00 Fair CLR 48.7 41.9 77% 46 29.86 0.0
09 06:15 SW 7 10.00 Fair CLR 49.3 42.1 76% 47 29.86 0.0
09 05:55 SW 7 10.00 Fair CLR 50.2 42.1 74% 29.86 0.0
09 05:35 SW 8 10.00 Fair CLR 49.3 42.1 76% 46 29.86 0.0
09 05:15 SW 7 10.00 Fair CLR 49.8 42.1 75% 47 29.87 0.0
09 04:55 SW 7 10.00 Fair CLR 52.7 41.9 67% 29.87 0.0
09 04:35 SW 9 10.00 Fair CLR 51.8 41.5 68% 29.87 0.0
09 04:15 SW 7 10.00 Fair CLR 50.2 41.2 71% 29.88 0.0
09 03:55 SW 6 10.00 Fair CLR 48.4 40.1 73% 46 29.87 0.0
09 03:35 SW 6 10.00 Fair CLR 49.8 40.1 69% 48 29.87 0.0
09 03:15 SW 5 10.00 Fair CLR 50.7 40.3 68% 29.88 0.0
09 02:55 SW 7 10.00 Fair CLR 49.6 40.1 70% 47 29.88 0.0
09 02:35 SW 5 10.00 Fair CLR 50.2 40.1 68% 29.88 0.0
09 02:15 SW 6 10.00 Fair CLR 49.3 40.6 72% 47 29.89 0.0
09 01:55 SW 7 10.00 Fair CLR 49.5 40.5 71% 47 29.89 0.0
09 01:35 SW 6 10.00 Fair CLR 49.3 40.1 71% 47 29.88 0.0
09 01:15 SW 5 10.00 Fair CLR 48.6 40.3 73% 47 29.88 0.0
09 00:55 S 3 10.00 Fair CLR 53.8 40.1 75.4 50.2 60% 29.88 0.0
09 00:35 SW 3 10.00 Fair CLR 50.4 40.5 69% 29.88 0.0
09 00:15 SW 6 10.00 Fair CLR 51.1 41 69% 29.88 0.0
08 23:55 Calm 10.00 Fair CLR 56.3 40.3 55% 29.88 0.0
08 23:35 Calm 10.00 Fair CLR 54.9 40.6 59% 29.88 0.0
08 23:15 Calm 10.00 Fair CLR 57.2 40.5 54% 29.87 0.0
08 22:55 Calm 10.00 Fair CLR 57.2 39.6 52% 29.87 0.0
08 22:35 Calm 7.00 Fair CLR 60.8 42.1 50% 29.87 0.0
08 22:15 Calm 7.00 Fair CLR 59.7 42.1 52% 29.87 0.0
08 21:55 Calm 7.00 Fair CLR 61.5 42.8 50% 29.86 0.0
08 21:35 Calm 5.00 Fair with Haze CLR 64.4 42.1 44% 29.86 0.0
08 21:15 Calm 5.00 Fair with Haze CLR 65.3 41.7 42% 29.85 0.0
08 20:55 Calm 7.00 Fair CLR 67.1 40.3 38% 29.85 0.0
08 20:35 Calm 7.00 Fair CLR 67.5 41 38% 29.85 0.0
08 20:15 Calm 7.00 Fair CLR 68.7 40.6 36% 29.84 0.0
08 19:55 N 6 10.00 Fair CLR 71.2 40.5 33% 29.84 0.0
08 19:35 N 10 10.00 Fair CLR 73.4 38.3 28% 29.84 0.0
08 19:15 N 13 10.00 Fair CLR 74.7 38.3 27% 29.84 0.0
08 18:55 N 8 10.00 Fair CLR 75.4 39.7 80.4 73.6 28% 77 29.83 0.0
08 18:35 N 14 G 18 10.00 Fair CLR 75.9 38.7 26% 77 29.82 0.0
08 17:55 N 14 10.00 Fair CLR 77.4 39.6 26% 78 29.82 0.0
08 17:35 N 14 10.00 Fair CLR 77.9 39.7 25% 78 29.81 0.0
08 17:15 N 17 G 21 10.00 Fair CLR 77.9 39.7 25% 78 29.81 0.0
08 16:55 N 15 G 21 10.00 Fair CLR 78.8 40.5 25% 78 29.81 0.0
08 16:35 N 18 G 22 10.00 Fair CLR 78.8 40.8 26% 78 29.8 0.0
08 16:15 N 13 G 21 10.00 Fair CLR 79.5 41.5 26% 79 29.8 0.0
08 15:55 N 12 G 20 10.00 Fair CLR 79.7 41.4 26% 79 29.8 0.0
08 15:35 N 14 G 23 10.00 Partly Cloudy SCT080 79.7 41.2 25% 79 29.8 0.0
08 15:15 N 10 G 21 10.00 Partly Cloudy SCT090 80.1 42.8 27% 79 29.81 0.0
08 14:35 N 14 G 17 10.00 Fair CLR 80.2 42.8 27% 79 29.81 0.0
08 14:15 N 7 10.00 Fair CLR 78.4 44.8 30% 78 29.81 0.0
08 13:55 Calm 10.00 Fair CLR 75.6 44.4 33% 77 29.82 0.0
08 13:35 Calm 10.00 Fair CLR 74.8 45.5 35% 29.83 0.0
08 13:15 N 5 10.00 Fair CLR 73.9 44.4 35% 29.83 0.0
08 12:55 NW 7 10.00 Fair CLR 74.3 44.2 74.7 54.1 34% 29.83 0.0
08 12:35 N 10 10.00 Fair CLR 74.3 44.8 35% 29.84 0.0
08 12:15 N 5 10.00 Fair CLR 71.1 43.9 38% 29.85 0.0
08 11:55 NW 6 10.00 Fair CLR 70.9 45 40% 29.86 0.0
08 11:35 W 7 10.00 Partly Cloudy SCT110 68 46.9 47% 29.86 0.0
08 11:15 W 6 10.00 Partly Cloudy SCT110 65.7 46.6 50% 29.85 0.0
08 10:55 W 9 10.00 Partly Cloudy SCT075 SCT110 64.4 46.2 52% 29.85 0.0
08 10:35 W 12 10.00 Partly Cloudy SCT120 64.4 46.2 52% 29.85 0.0
08 10:15 SW 9 10.00 Partly Cloudy SCT120 63 46.4 55% 29.84 0.0
08 09:55 SW 9 10.00 Fair CLR 62.6 46.4 56% 29.84 0.0
08 09:35 SW 10 10.00 Fair CLR 61.9 46 56% 29.84 0.0
08 09:15 SW 9 10.00 Fair CLR 60.4 45.9 59% 29.84 0.0
08 08:55 SW 7 10.00 Fair CLR 59 45.1 60% 29.84 0.0
08 08:35 SW 8 10.00 Fair CLR 58.1 44.2 60% 29.85 0.0
08 08:15 SW 7 10.00 Fair CLR 56.5 44.4 64% 29.84 0.0
08 07:55 SW 6 10.00 Fair CLR 55 43.5 65% 29.85 0.0
08 07:35 W 8 10.00 Fair CLR 54.1 43 66% 29.86 0.0
08 07:15 W 7 10.00 Fair CLR 54.5 44.1 68% 29.85 0.0
08 06:55 W 7 10.00 Fair CLR 55 44.8 59.7 54.9 69% 29.85 0.0
08 06:35 SW 10 10.00 Fair CLR 56.3 44.1 64% 29.84 0.0
08 06:15 SW 12 10.00 Fair CLR 56.5 43.5 62% 29.82 0.0
08 05:55 SW 13 10.00 Fair CLR 56.7 43.2 61% 29.82 0.0
08 05:35 SW 12 10.00 Fair CLR 57.2 42.8 59% 29.82 0.0
08 05:15 SW 14 10.00 Fair CLR 57.2 41.9 57% 29.82 0.0
08 04:55 SW 13 10.00 Fair CLR 57.4 41.2 55% 29.82 0.0
08 04:35 SW 12 10.00 Fair CLR 57.4 40.3 53% 29.83 0.0
08 04:15 SW 13 10.00 Fair CLR 57.9 39.4 50% 29.83 0.0
08 03:55 SW 13 10.00 Fair CLR 58.1 38.7 49% 29.83 0.0
08 03:35 SW 13 10.00 Fair CLR 58.1 38.1 48% 29.83 0.0
08 03:15 SW 13 10.00 Fair CLR 59.2 37.4 44% 29.83 0.0
08 02:55 SW 14 10.00 Fair CLR 59.7 37.2 43% 29.83 0.0
08 02:35 SW 13 10.00 Fair CLR 58.1 37.4 46% 29.84 0.0
08 02:15 SW 12 10.00 Fair CLR 56.5 36.7 48% 29.85 0.0
08 01:55 SW 9 10.00 Fair CLR 56.8 36.7 47% 29.86 0.0
08 01:35 SW 10 10.00 Fair CLR 57.4 36.5 46% 29.86 0.0
08 01:15 SW 8 10.00 Fair CLR 54.9 36.9 51% 29.86 0.0
08 00:55 SW 9 10.00 Fair CLR 55.9 37 78.3 55.4 49% 29.86 0.0
08 00:35 S 9 10.00 Fair CLR 56.1 37.4 50% 29.86 0.0
08 00:15 SW 10 10.00 Fair CLR 59.4 36.9 43% 29.86 0.0
07 23:55 SW 10 10.00 Fair CLR 60.3 37 42% 29.86 0.0
07 23:35 SW 12 10.00 Fair CLR 60.8 37.4 42% 29.87 0.0
07 23:15 SW 8 10.00 Fair CLR 58.1 37.8 47% 29.87 0.0
07 22:55 SW 8 10.00 Fair CLR 57.2 37.2 47% 29.87 0.0
07 22:35 S 8 10.00 Fair CLR 56.5 36.7 48% 29.87 0.0
07 22:15 S 7 10.00 Fair CLR 57.6 36.5 45% 29.87 0.0
07 21:55 S 6 10.00 Fair CLR 60.1 36 41% 29.86 0.0
07 21:35 S 7 10.00 Fair CLR 59.9 37.4 43% 29.86 0.0
07 21:15 S 7 10.00 Fair CLR 58.8 39.2 48% 29.85 0.0
07 20:55 S 9 10.00 Fair CLR 63.5 37.9 39% 29.85 0.0
07 20:35 S 7 10.00 Fair CLR 64.2 37.8 38% 29.85 0.0
07 20:15 S 8 10.00 Fair CLR 68.9 35.8 30% 29.84 0.0
07 19:55 S 8 10.00 Fair CLR 73 34.5 24% 29.84 0.0
07 19:35 SW 7 10.00 Fair CLR 76.1 32.7 20% 77 29.84 0.0
07 19:15 SW 8 10.00 Fair CLR 77.5 31.8 19% 77 29.84 0.0
07 18:55 SW 7 10.00 Fair CLR 78.4 31.1 79.7 69.1 18% 78 29.84 0.0
07 18:35 SW 8 10.00 Fair CLR 78.8 30.6 17% 78 29.84 0.0
07 18:15 W 10 10.00 Fair CLR 79 30.6 17% 78 29.84 0.0
07 17:55 W 10 10.00 Fair CLR 79.3 31.5 17% 78 29.85 0.0
07 17:35 W 7 10.00 Fair CLR 79.3 31.3 17% 78 29.85 0.0
07 17:15 W 12 10.00 Fair CLR 79.3 31.6 18% 78 29.85 0.0
07 16:55 W 9 10.00 Fair CLR 78.4 31.1 18% 78 29.86 0.0
07 16:35 W 8 G 18 10.00 Fair CLR 79 31.5 18% 78 29.87 0.0
07 16:15 SW 9 10.00 Fair CLR 78.6 31.5 18% 78 29.88 0.0
07 15:55 W 7 G 20 10.00 Fair CLR 77.5 31.1 18% 77 29.88 0.0
07 15:35 SW 13 G 21 10.00 Fair CLR 77.2 33.6 20% 77 29.89 0.0
07 15:15 SW 13 G 20 10.00 Fair CLR 76.3 34.9 22% 77 29.91 0.0
07 14:55 W 15 G 21 10.00 Fair CLR 75.6 34.9 23% 77 29.92 0.0
07 14:35 W 16 G 21 10.00 Fair CLR 75 33.1 22% 76 29.93 0.0
07 14:15 SW 12 G 20 10.00 Fair CLR 73.9 34 23% 29.94 0.0
07 13:55 W 16 G 22 10.00 Fair CLR 73.4 36 26% 29.95 0.0
07 13:35 SW 16 G 21 10.00 Fair CLR 71.6 36.3 28% 29.96 0.0
07 13:15 SW 14 G 21 10.00 Fair CLR 70.2 36.9 30% 29.97 0.0
07 12:55 W 17 G 23 10.00 Fair CLR 69.1 37.8 69.3 40.3 32% 29.98 0.0
07 12:35 SW 15 G 21 10.00 Fair CLR 66.4 37.4 34% 29.99 0.0
07 12:15 SW 16 G 21 10.00 Fair CLR 65.8 38.3 36% 30 0.0
07 11:55 SW 14 G 18 10.00 Fair CLR 64.8 39.2 39% 30.01 0.0
07 11:35 SW 13 10.00 Fair CLR 63.3 39 41% 30.02 0.0
07 11:15 SW 10 G 17 10.00 Fair CLR 61.7 38.8 43% 30.03 0.0
07 10:55 SW 12 G 18 10.00 Fair CLR 60.4 38.5 44% 30.03 0.0
07 10:35 SW 14 G 20 10.00 Fair CLR 59.2 37.9 45% 30.04 0.0
07 10:15 W 15 10.00 Fair CLR 57 37.6 48% 30.04 0.0
07 09:55 SW 15 G 20 10.00 Fair CLR 56.3 39.9 54% 30.04 0.0
Date Time (cdt) Wind (mph) Vis. (mi.) Weather Sky Cond. Air Dwpt Max. Min. Relative Humidity Wind Chill (°F) Heat Index (°F) altimeter (in) sea level (mb) 1 hr 3 hr 6 hr
6 hour
Temperature (ºF) Pressure Precipitation (in)